Time;durP1;ratioP1;P1;durP2;ratioP2;P2;SDS_P1;SDS_P2;PMS_P1;PMS_P2;Temp;Humidity;BMP_temperature;BMP_pressure;BME280_temperature;BME280_humidity;BME280_pressure;Samples;Min_cycle;Max_cycle;Signal;HPM_P1;HPM_P2
2023/05/03 00:01:40;;;;;;;5.23;3.23;;;11.30;99.40;;;;;;5015629;28;20263;-72
2023/05/03 00:04:06;;;;;;;3.80;3.37;;;11.30;99.40;;;;;;5013212;28;20213;-72
2023/05/03 00:06:31;;;;;;;7.50;3.67;;;11.30;99.30;;;;;;5012684;28;20477;-72
2023/05/03 00:08:57;;;;;;;7.60;3.40;;;11.30;99.30;;;;;;5028517;28;20455;-72
2023/05/03 00:11:23;;;;;;;7.10;3.23;;;11.30;99.30;;;;;;5028120;28;20238;-71
2023/05/03 00:13:48;;;;;;;3.23;2.93;;;11.30;99.40;;;;;;5006856;28;20263;-72
2023/05/03 00:16:14;;;;;;;7.80;3.47;;;11.20;99.30;;;;;;5005862;28;20217;-71
2023/05/03 00:18:39;;;;;;;10.20;3.80;;;11.20;99.30;;;;;;5022413;28;20279;-72
2023/05/03 00:21:05;;;;;;;5.63;3.67;;;11.20;99.30;;;;;;5019385;28;20263;-72
2023/05/03 00:23:31;;;;;;;5.20;3.20;;;11.10;99.30;;;;;;5028438;28;20242;-71
2023/05/03 00:25:57;;;;;;;5.50;2.97;;;11.00;99.20;;;;;;5014994;28;20695;-69
2023/05/03 00:28:24;;;;;;;3.30;3.00;;;11.10;99.30;;;;;;5026733;28;20770;-71
2023/05/03 00:30:50;;;;;;;4.57;3.40;;;11.10;99.30;;;;;;5021462;28;20464;-72
2023/05/03 00:33:16;;;;;;;5.53;3.03;;;11.00;99.30;;;;;;5023795;28;20459;-71
2023/05/03 00:35:43;;;;;;;5.77;3.30;;;11.00;99.30;;;;;;5024831;28;20459;-72
2023/05/03 00:38:08;;;;;;;4.13;3.37;;;10.90;99.20;;;;;;5025481;28;20220;-72
2023/05/03 00:40:34;;;;;;;3.97;3.27;;;10.90;99.30;;;;;;5017474;28;20464;-71
2023/05/03 00:43:00;;;;;;;4.43;3.23;;;10.80;99.40;;;;;;5018098;28;20214;-72
2023/05/03 00:45:26;;;;;;;4.03;3.30;;;10.80;99.30;;;;;;5027029;28;20743;-70
2023/05/03 00:47:52;;;;;;;5.83;3.50;;;10.70;99.20;;;;;;5024994;28;20263;-71
2023/05/03 00:50:18;;;;;;;5.47;4.13;;;10.70;99.40;;;;;;5026071;28;20221;-72
2023/05/03 00:52:44;;;;;;;4.37;3.30;;;10.60;99.10;;;;;;5024104;28;20518;-71
2023/05/03 00:55:10;;;;;;;6.43;3.90;;;10.60;99.20;;;;;;5012273;28;20479;-72
2023/05/03 00:57:36;;;;;;;5.30;3.37;;;10.60;99.30;;;;;;5021486;28;20470;-71
2023/05/03 01:00:02;;;;;;;5.40;3.40;;;10.60;99.40;;;;;;5018297;28;20554;-72
2023/05/03 01:02:28;;;;;;;6.43;4.13;;;10.50;99.40;;;;;;5020864;28;20229;-72
2023/05/03 01:04:54;;;;;;;6.27;3.53;;;10.50;99.30;;;;;;5018102;28;20517;-72
2023/05/03 01:07:20;;;;;;;5.47;4.10;;;10.50;99.40;;;;;;5029501;28;20228;-71
2023/05/03 01:10:24;;;;;;;6.40;3.30;;;10.50;99.60;;;;;;5019301;28;20973;-71
2023/05/03 01:13:08;;;;;;;4.43;3.53;;;10.50;99.30;;;;;;4960726;28;20227;-71
2023/05/03 01:15:46;;;;;;;4.27;3.40;;;10.30;99.50;;;;;;5025403;28;20551;-71
2023/05/03 01:18:17;;;;;;;6.10;3.40;;;10.40;99.40;;;;;;5023913;28;20465;-70
2023/05/03 01:20:47;;;;;;;5.03;3.60;;;10.30;99.60;;;;;;5022423;28;20459;-72
2023/05/03 01:23:29;;;;;;;4.60;3.30;;;10.30;99.40;;;;;;5019670;28;20857;-71
2023/05/03 01:25:54;;;;;;;4.73;3.37;;;10.20;99.80;;;;;;5001106;28;20456;-72
2023/05/03 01:28:20;;;;;;;6.67;3.60;;;10.20;99.50;;;;;;5011378;28;20452;-71
2023/05/03 01:30:48;;;;;;;6.93;4.47;;;10.10;99.70;;;;;;5023640;28;20216;-71
2023/05/03 01:33:20;;;;;;;8.23;4.80;;;10.00;99.70;;;;;;5039873;28;20279;-72
2023/05/03 01:35:56;;;;;;;4.53;3.17;;;9.90;99.90;;;;;;5029429;28;20454;-71
2023/05/03 01:38:22;;;;;;;4.23;3.53;;;9.90;99.90;;;;;;5030410;28;20482;-71
2023/05/03 01:40:52;;;;;;;9.30;3.77;;;9.90;99.90;;;;;;5016073;28;20555;-71
2023/05/03 01:43:20;;;;;;;5.30;4.07;;;9.80;99.90;;;;;;5001651;28;20468;-71
2023/05/03 01:45:46;;;;;;;6.77;4.03;;;9.70;99.90;;;;;;5022375;28;20459;-71
2023/05/03 01:48:17;;;;;;;5.33;3.83;;;9.70;99.90;;;;;;5015680;28;20496;-71
2023/05/03 01:50:44;;;;;;;5.27;3.20;;;9.60;99.90;;;;;;5026040;28;20467;-71
2023/05/03 01:53:10;;;;;;;4.97;3.50;;;9.50;99.90;;;;;;5012565;28;20868;-71
2023/05/03 01:55:36;;;;;;;5.87;4.63;;;9.60;99.90;;;;;;5010632;28;20448;-71
2023/05/03 01:58:01;;;;;;;5.43;3.57;;;9.50;99.90;;;;;;4999234;28;20240;-71
2023/05/03 02:00:27;;;;;;;3.60;3.30;;;9.50;99.90;;;;;;5011985;28;20213;-71
2023/05/03 02:02:53;;;;;;;8.30;3.37;;;9.60;99.90;;;;;;5020760;28;20236;-71
2023/05/03 02:05:19;;;;;;;4.87;3.30;;;9.70;99.90;;;;;;5000263;28;20460;-71
2023/05/03 02:07:45;;;;;;;3.70;2.97;;;9.70;99.90;;;;;;4997802;28;20804;-71
2023/05/03 02:10:13;;;;;;;5.53;3.33;;;9.70;99.90;;;;;;5010120;28;20611;-71
2023/05/03 02:12:43;;;;;;;6.00;3.43;;;9.60;99.80;;;;;;5028773;28;20217;-72
2023/05/03 02:15:10;;;;;;;4.77;3.60;;;9.70;99.70;;;;;;5009551;28;20443;-72
2023/05/03 02:17:36;;;;;;;6.00;4.17;;;9.60;99.70;;;;;;5012392;28;20470;-71
2023/05/03 02:20:10;;;;;;;5.30;3.50;;;9.50;99.60;;;;;;5029659;28;20459;-71
2023/05/03 02:22:36;;;;;;;8.47;4.40;;;9.50;99.80;;;;;;5031163;28;20467;-71
2023/05/03 02:25:02;;;;;;;7.37;4.33;;;9.60;99.70;;;;;;4999621;28;20471;-71
2023/05/03 02:27:28;;;;;;;6.63;3.83;;;9.60;99.60;;;;;;5007481;28;20229;-72
2023/05/03 02:29:54;;;;;;;5.93;3.83;;;9.50;99.50;;;;;;5027980;28;20228;-71
2023/05/03 02:32:20;;;;;;;5.30;3.90;;;9.50;99.60;;;;;;5011109;28;20222;-71
2023/05/03 02:34:48;;;;;;;4.87;3.60;;;9.50;99.70;;;;;;4999866;28;20476;-70
2023/05/03 02:37:17;;;;;;;5.97;3.60;;;9.60;99.80;;;;;;5017046;28;20567;-71
2023/05/03 02:39:44;;;;;;;4.80;3.80;;;9.60;99.80;;;;;;5010237;28;20460;-71
2023/05/03 02:42:11;;;;;;;3.67;3.30;;;9.50;99.90;;;;;;5025947;28;20464;-71
2023/05/03 02:44:36;;;;;;;6.27;3.90;;;9.50;99.90;;;;;;5019375;28;20568;-71
2023/05/03 02:47:02;;;;;;;6.03;4.33;;;9.40;99.90;;;;;;5020049;28;20265;-72
2023/05/03 02:49:28;;;;;;;4.23;3.53;;;9.40;99.90;;;;;;5009033;28;20208;-71
2023/05/03 02:51:55;;;;;;;8.40;4.00;;;9.40;99.90;;;;;;5016199;28;20469;-71
2023/05/03 02:54:21;;;;;;;4.60;3.33;;;9.50;99.90;;;;;;5028078;28;20698;-71
2023/05/03 02:56:47;;;;;;;4.83;3.33;;;9.50;99.90;;;;;;5017084;28;20464;-71
2023/05/03 02:59:13;;;;;;;5.03;3.27;;;9.60;99.90;;;;;;5044466;28;20448;-71
2023/05/03 03:01:39;;;;;;;3.23;2.90;;;9.50;99.90;;;;;;5010272;28;20283;-71
2023/05/03 03:04:05;;;;;;;5.50;4.27;;;9.20;99.90;;;;;;5023153;28;20223;-71
2023/05/03 03:06:31;;;;;;;4.30;3.77;;;9.10;99.90;;;;;;5029049;28;20259;-70
2023/05/03 03:08:57;;;;;;;9.83;4.93;;;9.20;99.90;;;;;;4996145;28;20441;-71
2023/05/03 03:11:24;;;;;;;8.03;3.33;;;9.30;99.90;;;;;;5018335;28;21062;-70
2023/05/03 03:13:49;;;;;;;7.33;3.60;;;9.40;99.90;;;;;;5024246;28;20584;-71
2023/05/03 03:16:15;;;;;;;4.43;3.43;;;9.50;99.90;;;;;;5032595;28;20481;-71
2023/05/03 03:18:41;;;;;;;4.60;3.30;;;9.60;99.80;;;;;;5020772;28;20276;-71
2023/05/03 03:21:07;;;;;;;8.50;4.10;;;9.60;99.70;;;;;;5023509;28;20305;-71
2023/05/03 03:23:34;;;;;;;5.47;3.53;;;9.50;99.60;;;;;;5021930;28;20471;-71
2023/05/03 03:26:00;;;;;;;6.33;4.20;;;9.60;99.70;;;;;;5026758;28;20467;-70
2023/05/03 03:28:26;;;;;;;6.63;4.40;;;9.50;99.60;;;;;;5027351;28;20702;-71
2023/05/03 03:30:53;;;;;;;5.53;4.17;;;9.50;99.70;;;;;;5001509;28;20290;-71
2023/05/03 03:33:24;;;;;;;9.90;4.70;;;9.40;99.70;;;;;;5030065;28;20494;-71
2023/05/03 03:35:50;;;;;;;9.57;4.00;;;9.30;99.80;;;;;;5019214;28;20864;-71
2023/05/03 03:38:17;;;;;;;4.73;3.57;;;9.30;99.70;;;;;;5024221;28;20452;-70
2023/05/03 03:40:51;;;;;;;6.90;3.50;;;9.20;99.80;;;;;;5022281;28;20480;-72
2023/05/03 03:43:17;;;;;;;7.33;3.30;;;9.20;99.80;;;;;;5011742;28;20458;-71
2023/05/03 03:45:43;;;;;;;7.10;3.80;;;9.20;99.70;;;;;;5030242;28;20534;-71
2023/05/03 03:48:12;;;;;;;7.07;3.10;;;9.20;99.70;;;;;;5024233;28;20478;-71
2023/05/03 03:50:38;;;;;;;4.47;2.90;;;9.20;99.80;;;;;;5025640;28;20464;-71
2023/05/03 03:53:05;;;;;;;3.30;3.00;;;9.30;99.80;;;;;;5008654;28;20732;-71
2023/05/03 03:55:31;;;;;;;7.93;3.97;;;9.20;99.70;;;;;;5012606;28;20543;-71
2023/05/03 03:57:56;;;;;;;5.60;3.63;;;9.20;99.90;;;;;;5026916;28;20567;-69
2023/05/03 04:00:24;;;;;;;11.00;4.17;;;9.20;99.90;;;;;;5019146;28;20224;-72
2023/05/03 04:02:58;;;;;;;5.97;3.73;;;9.20;99.60;;;;;;5019524;28;20507;-70
2023/05/03 04:05:24;;;;;;;5.10;3.67;;;9.20;99.70;;;;;;5030131;28;21027;-71
2023/05/03 04:07:50;;;;;;;4.27;3.30;;;9.20;99.70;;;;;;5005685;28;20224;-71
2023/05/03 04:10:17;;;;;;;3.97;3.30;;;9.20;99.80;;;;;;5027818;28;20452;-71
2023/05/03 04:12:43;;;;;;;8.00;4.60;;;9.20;99.80;;;;;;5013948;28;20474;-72
2023/05/03 04:15:12;;;;;;;5.17;3.07;;;9.00;99.90;;;;;;5028940;28;20279;-71
2023/05/03 04:17:38;;;;;;;13.33;3.60;;;8.90;99.80;;;;;;5005809;28;20523;-72
2023/05/03 04:20:09;;;;;;;5.43;3.53;;;8.90;99.80;;;;;;5028457;28;20455;-71
2023/05/03 04:22:38;;;;;;;11.93;3.73;;;8.90;99.80;;;;;;5006411;28;20481;-71
2023/05/03 04:25:04;;;;;;;5.73;3.67;;;8.90;99.90;;;;;;5006903;28;20985;-71
2023/05/03 04:27:31;;;;;;;11.53;3.93;;;8.90;99.90;;;;;;5024311;28;20479;-71
2023/05/03 04:29:58;;;;;;;9.40;4.60;;;8.90;99.90;;;;;;5022888;28;20455;-70
2023/05/03 04:32:24;;;;;;;6.20;4.03;;;8.90;99.90;;;;;;5023179;28;20552;-68
2023/05/03 04:34:53;;;;;;;4.30;2.90;;;8.90;99.90;;;;;;4989311;28;20464;-73
2023/05/03 04:37:22;;;;;;;6.37;3.83;;;8.90;99.90;;;;;;5028173;28;20459;-75
2023/05/03 04:39:48;;;;;;;4.73;3.70;;;8.90;99.90;;;;;;5031016;28;20507;-73
2023/05/03 04:42:15;;;;;;;5.37;3.53;;;8.90;99.90;;;;;;5024228;28;20479;-73
2023/05/03 04:44:43;;;;;;;4.50;3.17;;;8.90;99.90;;;;;;5019581;28;20467;-72
2023/05/03 04:47:09;;;;;;;5.90;3.70;;;8.90;99.90;;;;;;5016729;28;20475;-73
2023/05/03 04:49:35;;;;;;;4.47;3.60;;;8.90;99.90;;;;;;5010122;28;20463;-71
2023/05/03 04:52:01;;;;;;;6.47;4.10;;;8.90;99.90;;;;;;5021306;28;20993;-72
2023/05/03 04:54:28;;;;;;;3.93;3.30;;;8.90;99.90;;;;;;5002217;28;20463;-72
2023/05/03 04:56:55;;;;;;;7.27;4.03;;;8.80;99.90;;;;;;5021621;28;20979;-69
2023/05/03 04:59:21;;;;;;;5.33;3.40;;;8.80;99.90;;;;;;5014604;28;20487;-70
2023/05/03 05:01:47;;;;;;;5.07;3.90;;;8.80;99.90;;;;;;5018076;28;21106;-71
2023/05/03 05:04:14;;;;;;;7.00;3.10;;;8.90;99.90;;;;;;5026972;28;20486;-70
2023/05/03 05:06:44;;;;;;;5.77;4.03;;;8.90;99.90;;;;;;5022078;28;20495;-71
2023/05/03 05:09:26;;;;;;;9.63;3.90;;;9.00;99.90;;;;;;5018177;28;20444;-70
2023/05/03 05:11:55;;;;;;;5.50;3.70;;;9.00;99.90;;;;;;5028144;28;20521;-72
2023/05/03 05:14:21;;;;;;;6.33;3.40;;;9.10;99.90;;;;;;5017910;28;20446;-70
2023/05/03 05:16:49;;;;;;;4.77;3.70;;;9.10;99.90;;;;;;5006544;28;20448;-71
2023/05/03 05:19:15;;;;;;;8.67;3.30;;;9.10;99.90;;;;;;5033712;28;20522;-70
2023/05/03 05:21:41;;;;;;;6.60;3.10;;;9.20;99.90;;;;;;5024754;28;20479;-69
2023/05/03 05:24:08;;;;;;;4.03;3.17;;;9.20;99.90;;;;;;5034715;28;20880;-72
2023/05/03 05:26:33;;;;;;;7.97;3.87;;;9.20;99.90;;;;;;5020910;28;20465;-71
2023/05/03 05:28:59;;;;;;;4.47;3.60;;;9.20;99.90;;;;;;4996185;28;20217;-72
2023/05/03 05:31:25;;;;;;;4.80;3.80;;;9.20;99.90;;;;;;5023905;28;20221;-72
2023/05/03 05:33:52;;;;;;;4.87;3.20;;;9.20;99.90;;;;;;5009219;28;20298;-72
2023/05/03 05:36:18;;;;;;;5.47;3.83;;;9.30;99.90;;;;;;5015618;28;20918;-72
2023/05/03 05:38:44;;;;;;;6.20;3.37;;;9.30;99.90;;;;;;5012010;28;20221;-72
2023/05/03 05:41:10;;;;;;;6.53;3.57;;;9.40;99.90;;;;;;5009486;28;20538;-71
2023/05/03 05:43:38;;;;;;;6.23;3.50;;;9.40;99.90;;;;;;5024169;28;20284;-71
2023/05/03 05:46:04;;;;;;;7.00;3.63;;;9.40;99.90;;;;;;5000494;28;20448;-70
2023/05/03 05:48:30;;;;;;;7.47;4.00;;;9.50;99.90;;;;;;5002544;28;20213;-72
2023/05/03 05:50:56;;;;;;;4.33;3.43;;;9.50;99.90;;;;;;5010750;28;20221;-71
2023/05/03 05:53:22;;;;;;;4.83;3.70;;;9.50;99.90;;;;;;4989281;28;20444;-72
2023/05/03 05:55:55;;;;;;;7.13;3.30;;;9.60;99.90;;;;;;5009480;28;20321;-72
2023/05/03 05:58:21;;;;;;;5.87;3.27;;;9.60;99.90;;;;;;5018945;28;20448;-72
2023/05/03 06:00:51;;;;;;;5.63;3.33;;;9.60;99.90;;;;;;5012311;28;20517;-72
2023/05/03 06:03:17;;;;;;;6.47;3.50;;;9.70;99.90;;;;;;5028023;28;20505;-71
2023/05/03 06:05:44;;;;;;;10.07;4.20;;;9.70;99.90;;;;;;5024610;28;20468;-72
2023/05/03 06:08:10;;;;;;;7.57;4.23;;;9.70;99.90;;;;;;5030529;28;20825;-71
2023/05/03 06:10:37;;;;;;;4.20;3.73;;;9.70;99.90;;;;;;5004220;28;20218;-71
2023/05/03 06:13:02;;;;;;;4.43;4.03;;;9.60;99.90;;;;;;5006880;28;20584;-72
2023/05/03 06:15:28;;;;;;;5.77;4.00;;;9.70;99.90;;;;;;5023710;28;20244;-70
2023/05/03 06:17:54;;;;;;;5.57;4.03;;;9.80;99.90;;;;;;5025029;28;20505;-72
2023/05/03 06:20:20;;;;;;;5.77;3.93;;;9.90;99.90;;;;;;5018714;28;20228;-72
2023/05/03 06:22:47;;;;;;;5.30;4.30;;;9.90;99.90;;;;;;5015363;28;20216;-70
2023/05/03 06:25:14;;;;;;;4.10;3.67;;;10.00;99.90;;;;;;5027979;28;20981;-72
2023/05/03 06:27:42;;;;;;;4.83;3.60;;;10.10;99.90;;;;;;5003148;28;20872;-72
2023/05/03 06:30:09;;;;;;;8.70;3.97;;;10.10;99.90;;;;;;5022399;28;20459;-70
2023/05/03 06:32:39;;;;;;;4.67;2.87;;;10.20;99.90;;;;;;5007100;28;20263;-71
2023/05/03 06:35:06;;;;;;;3.97;2.57;;;10.20;99.90;;;;;;5027041;28;20458;-72
2023/05/03 06:37:32;;;;;;;6.40;3.50;;;10.20;99.90;;;;;;5034272;28;20915;-70
2023/05/03 06:39:58;;;;;;;4.80;3.40;;;10.30;99.90;;;;;;5029412;28;20559;-71
2023/05/03 06:42:24;;;;;;;7.47;3.57;;;10.40;99.90;;;;;;5014100;28;20224;-70
2023/05/03 06:45:02;;;;;;;6.63;3.83;;;10.50;99.90;;;;;;5027469;28;20241;-73
2023/05/03 06:47:28;;;;;;;5.83;4.50;;;10.40;99.90;;;;;;5022134;28;21261;-71
2023/05/03 06:49:53;;;;;;;6.07;3.70;;;10.50;99.90;;;;;;5023369;28;20479;-71
2023/05/03 06:52:19;;;;;;;11.43;4.03;;;10.50;99.90;;;;;;5004981;28;20217;-71
2023/05/03 06:54:45;;;;;;;5.93;5.33;;;10.60;99.90;;;;;;5031117;28;20216;-72
2023/05/03 06:57:11;;;;;;;6.60;4.00;;;10.70;99.90;;;;;;5013074;28;20640;-71
2023/05/03 06:59:36;;;;;;;5.27;3.33;;;10.70;99.90;;;;;;5006078;28;20217;-71
2023/05/03 07:02:02;;;;;;;4.97;3.93;;;10.70;99.90;;;;;;5016971;28;20472;-72
2023/05/03 07:04:29;;;;;;;8.47;3.80;;;10.80;99.90;;;;;;5026615;28;20714;-69
2023/05/03 07:06:54;;;;;;;6.03;3.43;;;10.80;99.90;;;;;;5003741;28;20232;-69
2023/05/03 07:09:20;;;;;;;7.60;4.33;;;10.80;99.90;;;;;;5026559;28;20460;-72
2023/05/03 07:11:49;;;;;;;7.90;4.33;;;11.00;99.90;;;;;;5017239;28;20221;-72
2023/05/03 07:14:15;;;;;;;10.27;3.93;;;11.00;99.90;;;;;;5021880;28;20216;-71
2023/05/03 07:16:41;;;;;;;4.80;3.63;;;11.20;99.90;;;;;;5029856;28;20474;-71
2023/05/03 07:19:07;;;;;;;8.13;3.90;;;11.20;99.90;;;;;;5019997;28;20535;-72
2023/05/03 07:21:33;;;;;;;4.57;3.50;;;11.20;99.90;;;;;;5013451;28;20225;-72
2023/05/03 07:23:59;;;;;;;6.40;3.90;;;11.30;99.90;;;;;;5021663;28;20464;-72
2023/05/03 07:26:25;;;;;;;5.73;3.03;;;11.40;99.90;;;;;;5030902;28;20217;-72
2023/05/03 07:28:52;;;;;;;9.13;4.20;;;11.40;99.90;;;;;;5004249;28;20469;-71
2023/05/03 07:31:18;;;;;;;6.20;4.13;;;11.50;99.90;;;;;;5028536;28;20534;-71
2023/05/03 07:33:43;;;;;;;7.53;3.40;;;11.50;99.90;;;;;;5011218;28;20953;-73
2023/05/03 07:36:09;;;;;;;11.70;3.60;;;11.70;99.90;;;;;;5025573;28;20221;-73
2023/05/03 07:38:35;;;;;;;3.87;3.47;;;11.80;99.90;;;;;;5010214;28;20213;-71
2023/05/03 07:41:00;;;;;;;13.93;4.30;;;12.00;99.90;;;;;;5028390;28;20217;-72
2023/05/03 07:43:26;;;;;;;5.23;3.60;;;12.10;99.90;;;;;;5019320;28;20275;-69
2023/05/03 07:45:52;;;;;;;4.13;3.10;;;12.10;99.90;;;;;;5022209;28;20225;-72
2023/05/03 07:48:17;;;;;;;3.87;3.57;;;12.10;99.90;;;;;;5019090;28;20585;-72
2023/05/03 07:50:44;;;;;;;6.00;4.40;;;12.10;99.80;;;;;;5032553;28;20695;-72
2023/05/03 07:53:11;;;;;;;3.27;2.97;;;11.90;99.80;;;;;;4998774;28;20232;-72
2023/05/03 07:55:37;;;;;;;5.90;3.67;;;12.00;99.90;;;;;;5015763;28;20473;-72
2023/05/03 07:58:03;;;;;;;4.60;3.40;;;12.20;99.90;;;;;;5022954;28;20468;-72
2023/05/03 08:00:29;;;;;;;5.00;3.70;;;12.30;99.90;;;;;;5008057;28;20577;-72
2023/05/03 08:02:55;;;;;;;4.30;3.90;;;12.40;99.90;;;;;;5026460;28;20561;-72
2023/05/03 08:05:22;;;;;;;5.07;3.30;;;12.50;99.90;;;;;;5025512;28;20347;-72
2023/05/03 08:07:51;;;;;;;5.40;3.60;;;12.50;99.90;;;;;;5027555;28;20703;-72
2023/05/03 08:10:17;;;;;;;4.30;3.80;;;12.60;99.90;;;;;;5029989;28;20835;-73
2023/05/03 08:12:43;;;;;;;4.10;3.63;;;12.90;99.90;;;;;;5023484;28;20546;-71
2023/05/03 08:15:08;;;;;;;4.50;3.63;;;12.70;99.70;;;;;;5017357;28;20225;-72
2023/05/03 08:17:42;;;;;;;4.57;4.03;;;12.80;99.80;;;;;;5018877;28;20248;-71
2023/05/03 08:20:08;;;;;;;6.60;3.80;;;12.90;99.60;;;;;;5013308;28;20217;-73
2023/05/03 08:22:36;;;;;;;6.80;3.53;;;12.80;99.30;;;;;;5016735;28;20558;-72
2023/05/03 08:25:03;;;;;;;6.90;4.10;;;12.90;99.80;;;;;;5027162;28;20463;-72
2023/05/03 08:27:30;;;;;;;4.23;3.70;;;13.10;99.00;;;;;;5016119;28;20551;-72
2023/05/03 08:29:55;;;;;;;8.20;3.70;;;12.80;99.20;;;;;;5018360;28;20494;-72
2023/05/03 08:32:21;;;;;;;6.23;3.97;;;12.80;99.40;;;;;;5025354;28;20499;-73
2023/05/03 08:34:48;;;;;;;6.40;4.10;;;12.80;99.30;;;;;;5023124;28;20214;-72
2023/05/03 08:37:14;;;;;;;4.20;3.80;;;13.10;99.60;;;;;;5024394;28;20312;-71
2023/05/03 08:39:39;;;;;;;5.30;4.23;;;13.20;99.00;;;;;;5025757;28;20472;-72
2023/05/03 08:42:06;;;;;;;7.40;4.20;;;13.00;99.40;;;;;;5008630;28;20313;-72
2023/05/03 08:44:36;;;;;;;5.53;4.50;;;13.10;99.20;;;;;;5017884;28;20228;-72
2023/05/03 08:47:06;;;;;;;5.33;3.70;;;13.30;99.40;;;;;;5034153;28;20487;-72
2023/05/03 08:49:36;;;;;;;4.90;3.80;;;13.60;98.90;;;;;;5018331;28;20479;-72
2023/05/03 08:52:05;;;;;;;8.37;3.57;;;13.90;99.20;;;;;;5015673;28;20468;-72
2023/05/03 08:54:30;;;;;;;7.93;3.60;;;14.10;98.80;;;;;;5021633;28;20476;-73
2023/05/03 08:56:56;;;;;;;5.40;3.90;;;14.10;98.70;;;;;;5019910;28;20544;-72
2023/05/03 08:59:23;;;;;;;5.73;3.33;;;13.90;98.20;;;;;;5022912;28;20209;-72
2023/05/03 09:01:49;;;;;;;4.57;3.70;;;13.90;98.90;;;;;;5021962;28;20226;-72
2023/05/03 09:04:16;;;;;;;4.70;3.50;;;14.10;98.80;;;;;;5021504;28;20476;-71
2023/05/03 09:06:41;;;;;;;5.70;4.27;;;14.20;98.30;;;;;;5024287;28;20225;-73
2023/05/03 09:09:07;;;;;;;10.20;4.33;;;14.30;98.20;;;;;;5006136;28;20504;-73
2023/05/03 09:11:35;;;;;;;4.03;3.50;;;14.30;98.90;;;;;;5030309;28;20209;-72
2023/05/03 09:14:07;;;;;;;4.37;3.57;;;14.50;98.10;;;;;;5009530;28;20583;-72
2023/05/03 09:16:33;;;;;;;5.33;4.10;;;14.50;98.00;;;;;;5018935;28;20460;-72
2023/05/03 09:19:01;;;;;;;6.73;3.63;;;14.60;98.10;;;;;;5023406;28;21000;-72
2023/05/03 09:21:32;;;;;;;6.07;3.73;;;14.70;98.00;;;;;;5000312;28;20213;-72
2023/05/03 09:23:59;;;;;;;6.17;4.07;;;14.60;97.70;;;;;;5030229;28;20501;-71
2023/05/03 09:26:34;;;;;;;8.23;4.50;;;14.50;97.70;;;;;;5029572;28;20918;-72
2023/05/03 09:29:01;;;;;;;7.13;4.07;;;14.70;97.80;;;;;;5030272;28;20475;-71
2023/05/03 09:31:29;;;;;;;4.30;3.70;;;14.80;97.70;;;;;;5009634;28;20465;-72
2023/05/03 09:33:55;;;;;;;6.00;4.37;;;14.90;97.60;;;;;;5024036;28;20465;-71
2023/05/03 09:36:22;;;;;;;5.00;4.10;;;15.00;97.40;;;;;;5017783;28;20457;-72
2023/05/03 09:38:48;;;;;;;7.33;3.97;;;14.70;97.00;;;;;;5023893;28;20459;-73
2023/05/03 09:41:15;;;;;;;5.63;3.40;;;14.70;97.90;;;;;;5027554;28;20447;-71
2023/05/03 09:43:49;;;;;;;7.07;4.63;;;15.00;97.90;;;;;;5023514;28;20562;-72
2023/05/03 09:46:15;;;;;;;8.90;4.43;;;15.30;97.50;;;;;;5007103;28;20481;-72
2023/05/03 09:48:41;;;;;;;7.23;3.30;;;15.10;97.60;;;;;;5006500;28;20468;-71
2023/05/03 09:51:07;;;;;;;6.87;3.20;;;15.30;97.70;;;;;;5022373;28;20537;-72
2023/05/03 09:53:35;;;;;;;6.00;4.07;;;15.40;97.60;;;;;;5019862;28;20551;-72
2023/05/03 09:56:12;;;;;;;7.67;5.00;;;15.50;97.70;;;;;;5011366;28;20595;-71
2023/05/03 09:58:39;;;;;;;3.90;3.50;;;15.50;97.20;;;;;;5018723;28;20460;-72
2023/05/03 10:01:05;;;;;;;6.33;4.50;;;15.70;97.70;;;;;;5016720;28;20509;-72
2023/05/03 10:03:49;;;;;;;4.43;3.37;;;15.90;97.20;;;;;;4999210;28;20472;-72
2023/05/03 10:06:32;;;;;;;5.70;3.70;;;16.30;97.30;;;;;;5025056;28;20490;-72
2023/05/03 10:09:05;;;;;;;5.33;4.70;;;16.10;96.40;;;;;;5017819;28;20883;-71
2023/05/03 10:11:35;;;;;;;5.40;3.60;;;16.00;97.00;;;;;;5043413;28;20487;-72
2023/05/03 10:14:01;;;;;;;5.00;4.00;;;16.20;96.50;;;;;;5003857;28;20453;-72
2023/05/03 10:16:32;;;;;;;6.13;3.87;;;16.20;96.60;;;;;;4998109;28;20456;-72
2023/05/03 10:19:13;;;;;;;5.43;3.80;;;16.50;96.30;;;;;;5016832;28;20464;-72
2023/05/03 10:22:16;;;;;;;4.40;3.20;;;16.60;96.20;;;;;;5022144;28;20516;-71
2023/05/03 10:25:01;;;;;;;8.03;4.10;;;16.50;96.10;;;;;;5009259;28;20501;-72
2023/05/03 10:27:45;;;;;;;6.57;4.30;;;16.50;95.80;;;;;;5026883;28;20470;-72
2023/05/03 10:30:33;;;;;;;4.20;3.80;;;16.50;95.50;;;;;;5029106;28;20466;-73
2023/05/03 10:33:10;;;;;;;7.20;3.90;;;16.60;95.70;;;;;;5021551;28;20471;-71
2023/05/03 10:35:45;;;;;;;5.80;4.57;;;16.80;95.40;;;;;;5018456;28;20558;-72
2023/05/03 10:38:23;;;;;;;4.37;3.87;;;17.00;95.80;;;;;;5019050;28;20485;-72
2023/05/03 10:40:49;;;;;;;6.33;4.30;;;16.90;95.30;;;;;;5020433;28;20462;-71
2023/05/03 10:43:30;;;;;;;5.67;3.77;;;17.10;95.00;;;;;;5022336;28;20969;-73
2023/05/03 10:46:03;;;;;;;4.40;3.70;;;17.50;94.80;;;;;;5013805;28;20950;-72
2023/05/03 10:48:33;;;;;;;3.63;3.33;;;17.70;94.60;;;;;;5016714;28;20716;-73
2023/05/03 10:51:27;;;;;;;6.00;3.90;;;17.80;94.60;;;;;;5013168;28;20482;-72
2023/05/03 10:53:53;;;;;;;6.70;3.90;;;17.50;93.80;;;;;;5007351;28;20472;-72
2023/05/03 10:56:19;;;;;;;5.07;4.40;;;17.20;94.80;;;;;;5026318;28;20448;-72
2023/05/03 10:58:49;;;;;;;4.40;3.60;;;17.30;95.10;;;;;;5017109;28;20688;-73
2023/05/03 11:01:17;;;;;;;6.20;4.37;;;17.90;94.70;;;;;;5020547;28;20694;-72
2023/05/03 11:03:52;;;;;;;6.37;4.57;;;18.20;93.70;;;;;;5020974;28;20499;-72
2023/05/03 11:06:50;;;;;;;6.23;4.40;;;18.20;93.60;;;;;;5023647;28;20458;-72
2023/05/03 11:09:16;;;;;;;5.90;4.00;;;17.80;93.80;;;;;;5006073;28;20497;-72
2023/05/03 11:11:42;;;;;;;6.23;3.83;;;17.60;93.70;;;;;;5031918;28;20475;-73
2023/05/03 11:14:09;;;;;;;8.50;4.20;;;17.40;93.70;;;;;;5019298;28;20965;-73
2023/05/03 11:16:46;;;;;;;6.20;4.03;;;17.50;94.00;;;;;;5009198;28;20227;-72
2023/05/03 11:19:13;;;;;;;3.87;3.50;;;17.70;93.50;;;;;;5008317;28;20895;-71
2023/05/03 11:21:39;;;;;;;4.70;4.27;;;17.90;94.10;;;;;;5025867;28;20487;-72
2023/05/03 11:24:05;;;;;;;9.50;4.20;;;18.10;93.50;;;;;;5017458;28;20519;-72
2023/05/03 11:26:37;;;;;;;8.40;4.17;;;17.80;93.20;;;;;;5019857;28;20472;-71
2023/05/03 11:29:04;;;;;;;7.47;4.07;;;18.10;93.30;;;;;;5013954;28;20256;-73
2023/05/03 11:31:30;;;;;;;8.00;4.33;;;18.00;93.30;;;;;;5022423;28;20464;-72
2023/05/03 11:33:56;;;;;;;5.97;3.97;;;17.90;93.10;;;;;;5024923;28;20489;-73
2023/05/03 11:36:22;;;;;;;6.63;3.77;;;17.90;93.20;;;;;;5031606;28;20493;-73
2023/05/03 11:38:47;;;;;;;5.07;4.10;;;17.90;93.20;;;;;;5014319;28;20217;-72
2023/05/03 11:41:15;;;;;;;7.63;3.60;;;18.00;93.00;;;;;;5026451;28;20248;-72
2023/05/03 11:43:46;;;;;;;6.27;4.20;;;18.50;92.80;;;;;;5020026;28;20762;-72
2023/05/03 11:46:20;;;;;;;8.47;4.33;;;18.60;92.20;;;;;;5031271;28;20459;-73
2023/05/03 11:48:46;;;;;;;6.40;3.93;;;18.10;90.80;;;;;;5026759;28;20495;-72
2023/05/03 11:51:12;;;;;;;6.43;3.50;;;18.10;91.00;;;;;;5028224;28;20466;-73
2023/05/03 11:53:40;;;;;;;5.17;3.47;;;18.20;90.80;;;;;;5033776;28;20239;-73
2023/05/03 11:56:08;;;;;;;4.30;3.67;;;18.30;91.20;;;;;;5043117;28;20455;-72
2023/05/03 11:58:34;;;;;;;4.70;3.67;;;18.50;90.90;;;;;;5031271;28;20467;-73
2023/05/03 12:01:00;;;;;;;7.47;3.60;;;18.20;91.10;;;;;;5023771;28;20471;-73
2023/05/03 12:03:28;;;;;;;4.60;3.60;;;18.30;91.00;;;;;;5036804;28;20444;-73
2023/05/03 12:05:55;;;;;;;5.57;4.03;;;18.60;91.10;;;;;;5033879;28;20451;-73
2023/05/03 12:08:27;;;;;;;4.63;3.80;;;18.50;90.90;;;;;;5039110;28;20612;-73
2023/05/03 12:10:53;;;;;;;4.30;3.63;;;18.30;91.10;;;;;;5026593;28;20477;-72
2023/05/03 12:13:35;;;;;;;4.17;3.43;;;18.00;91.00;;;;;;5044229;28;21014;-73
2023/05/03 12:16:03;;;;;;;7.47;4.30;;;18.30;90.90;;;;;;5040765;28;20463;-74
2023/05/03 12:18:53;;;;;;;4.03;3.53;;;18.40;90.90;;;;;;5026697;28;20463;-72
2023/05/03 12:21:20;;;;;;;4.97;3.60;;;18.50;90.60;;;;;;5025770;28;20464;-72
2023/05/03 12:23:48;;;;;;;3.40;3.10;;;18.60;90.70;;;;;;5018708;28;20477;-72
2023/05/03 12:26:14;;;;;;;6.00;4.17;;;18.70;91.30;;;;;;5033830;28;20526;-73
2023/05/03 12:28:40;;;;;;;6.03;4.13;;;18.70;90.90;;;;;;5015742;28;20505;-72
2023/05/03 12:31:06;;;;;;;4.47;3.83;;;18.60;90.90;;;;;;5028911;28;20483;-72
2023/05/03 12:33:32;;;;;;;5.03;3.80;;;18.60;90.90;;;;;;5013923;28;20296;-72
2023/05/03 12:35:58;;;;;;;3.93;3.53;;;18.30;90.20;;;;;;5023201;28;20647;-71
2023/05/03 12:38:24;;;;;;;7.63;4.77;;;18.30;90.80;;;;;;5002466;28;20223;-72
2023/05/03 12:40:49;;;;;;;6.13;4.60;;;18.30;90.80;;;;;;5026337;28;20469;-74
2023/05/03 12:43:15;;;;;;;5.20;4.10;;;18.40;91.40;;;;;;5030592;28;20298;-72
2023/05/03 12:45:41;;;;;;;5.43;4.67;;;18.70;90.50;;;;;;5032314;28;20692;-73
2023/05/03 12:48:07;;;;;;;8.00;4.70;;;18.90;90.90;;;;;;5000121;28;20603;-73
2023/05/03 12:50:33;;;;;;;5.47;4.47;;;18.80;89.40;;;;;;5003633;28;20676;-72
2023/05/03 12:52:59;;;;;;;9.07;6.97;;;18.40;90.00;;;;;;5014719;28;20508;-72
2023/05/03 12:55:25;;;;;;;11.93;4.10;;;18.70;91.60;;;;;;5036379;28;20239;-73